Trenton Mercer Airport
KTTN : now visible

Airfield :











YOU CAN JOIN US ON...

 
LOGIN :

Register | Disclaimer

   EN    FR    IT 

 









Legend :    VFR   Marginal VFR   IFR   Intensive IFR   Very Intensive IFR
Visi :
Ceiling :
>= 8 km
>= 3000ft
5 to 8 km
1000 to 3000 ft
1500m to 5 km
500 to 1000 ft
800 to 1500m
200 to 500 ft
< 800m
< 200 ft
Symbols :   Thunderstorms  Fog  Heavy snow  Heavy precipitations  Wind > 20 kt







- Airport Elevation : 213 ft
- IATA code : TTN


KTTN - Trenton Mercer

CURRENT METAR :
  • 202353Z 28004KT 10SM CLR 27/16 A2973 RMK AO2 SLP059 60002 T02720156 10311 20272 53003

EXPIRED METARs :
  • 202253Z 27006KT 10SM SCT070 SCT090 BKN110 28/17 A2972 RMK AO2 SLP055 T02830167
  • 202153Z 25008KT 10SM SCT110 27/18 A2972 RMK AO2 RAB18E30 SLP057 P0002 T02720178

TAF KTTN
Valid from the 21 at 00:00 until the 22 at 00:00 UTC


202329Z 2100/2124 27012G18KT P6SM FEW060
FM210300 30010KT P6SM FEW250
FM210600 32010KT P6SM SKC
FM211200 33012G19KT P6SM SKC
FM211800 33015G23KT P6SM SKC
KZDC FIR / North America



MET'MAP, your aeronautical weather chart ! - Copyright ORBIFLY December 2007 - Disclaimer

ORBIFLY MET'MAP TEAM :

Programming & Development : Alexandra Zaïnal
Concept & Development : Baudouin d'Aumeries
Co-Development & Prog : Marc-Olivier Méhu
Technical & hardware support : Manuel Goepfert

Contact : metmap@orbifly.com




SOURCES & CREDITS :

   NOAA       Earth
Advisory